Time;durP1;ratioP1;P1;durP2;ratioP2;P2;SDS_P1;SDS_P2;PMS_P1;PMS_P2;Temp;Humidity;BMP_temperature;BMP_pressure;BME280_temperature;BME280_humidity;BME280_pressure;Samples;Min_cycle;Max_cycle;Signal;HPM_P1;HPM_P2
2022/12/31 00:00:14;;;;;;;2.23;2.00;;;;;;;11.67;100.00;100151.06;5241100;28;20025;-71
2022/12/31 00:02:45;;;;;;;3.43;1.67;;;;;;;11.64;100.00;100153.75;5240631;28;20026;-71
2022/12/31 00:05:16;;;;;;;3.60;2.07;;;;;;;11.70;100.00;100157.09;5241578;28;20057;-71
2022/12/31 00:07:48;;;;;;;2.23;1.53;;;;;;;11.70;100.00;100142.28;5241454;28;20033;-72
2022/12/31 00:10:19;;;;;;;3.47;2.43;;;;;;;11.72;100.00;100142.22;5240109;28;20026;-71
2022/12/31 00:12:50;;;;;;;2.70;2.10;;;;;;;11.77;100.00;100146.44;5241025;28;20053;-73
2022/12/31 00:15:22;;;;;;;3.50;2.53;;;;;;;11.77;100.00;100153.41;5241614;28;20056;-72
2022/12/31 00:17:53;;;;;;;3.63;2.27;;;;;;;11.82;100.00;100148.94;5241429;28;20213;-72
2022/12/31 00:20:25;;;;;;;2.70;2.17;;;;;;;11.78;100.00;100145.53;5239919;28;20030;-72
2022/12/31 00:22:56;;;;;;;3.07;2.27;;;;;;;11.83;100.00;100151.50;5241198;28;20116;-72
2022/12/31 00:25:27;;;;;;;3.50;2.67;;;;;;;11.82;100.00;100159.38;5241780;28;20465;-72
2022/12/31 00:27:59;;;;;;;3.33;2.43;;;;;;;11.79;100.00;100155.09;5241608;28;20037;-72
2022/12/31 00:30:30;;;;;;;4.33;2.77;;;;;;;11.83;100.00;100148.00;5241462;28;20080;-72
2022/12/31 00:33:02;;;;;;;3.70;2.73;;;;;;;11.80;100.00;100138.53;5241919;28;20445;-71
2022/12/31 00:35:35;;;;;;;6.70;2.60;;;;;;;11.79;100.00;100130.72;5241194;28;20133;-72
2022/12/31 00:38:06;;;;;;;3.60;2.83;;;;;;;11.79;100.00;100128.97;5240978;28;20030;-73
2022/12/31 00:40:37;;;;;;;4.10;3.10;;;;;;;11.78;100.00;100118.56;5241548;28;20484;-72
2022/12/31 00:43:09;;;;;;;3.90;2.90;;;;;;;11.79;100.00;100125.50;5241372;28;20037;-72
2022/12/31 00:45:41;;;;;;;3.80;2.47;;;;;;;11.81;100.00;100147.19;5239760;28;20080;-71
2022/12/31 00:48:12;;;;;;;2.37;1.97;;;;;;;11.81;100.00;100124.56;5241660;28;20033;-72
2022/12/31 00:50:44;;;;;;;2.87;1.77;;;;;;;11.79;100.00;100130.72;5241414;28;20037;-74
2022/12/31 00:53:16;;;;;;;4.00;1.70;;;;;;;11.78;100.00;100126.41;5240706;28;20087;-73
2022/12/31 00:55:47;;;;;;;4.57;1.70;;;;;;;11.77;100.00;100133.38;5241593;28;20080;-73
2022/12/31 00:58:19;;;;;;;1.50;1.40;;;;;;;11.73;100.00;100125.69;5241384;28;20654;-73
2022/12/31 01:00:50;;;;;;;4.80;1.60;;;;;;;11.75;100.00;100123.88;5240717;28;20034;-73
2022/12/31 01:03:22;;;;;;;2.23;1.43;;;;;;;11.72;100.00;100119.63;5241397;28;20037;-74
2022/12/31 01:05:58;;;;;;;1.73;1.40;;;;;;;11.75;100.00;100126.47;5244864;28;20330;-74
2022/12/31 01:08:29;;;;;;;2.35;1.50;;;;;;;11.72;100.00;100127.44;5244406;28;20084;-74
2022/12/31 01:13:59;;;;;;;5.10;1.30;;;;;;;11.71;100.00;100115.28;5245116;28;20057;-75
2022/12/31 01:16:33;;;;;;;2.05;1.20;;;;;;;11.69;100.00;100111.88;5244645;28;20029;-76
2022/12/31 01:19:08;;;;;;;1.55;1.40;;;;;;;11.65;100.00;100113.69;5244278;28;20040;-75
2022/12/31 01:21:40;;;;;;;1.58;1.33;;;;;;;11.61;100.00;100106.84;5244261;28;20095;-75
2022/12/31 01:24:12;;;;;;;5.15;1.25;;;;;;;11.58;100.00;100112.16;5244531;28;20037;-76
2022/12/31 01:26:44;;;;;;;1.43;1.10;;;;;;;11.55;100.00;100112.22;5244169;28;20088;-75
2022/12/31 01:29:15;;;;;;;2.30;1.48;;;;;;;11.49;100.00;100115.88;5244427;28;20040;-75
2022/12/31 01:31:47;;;;;;;3.50;1.17;;;;;;;11.45;100.00;100110.78;5244517;28;20379;-76
2022/12/31 01:34:18;;;;;;;1.50;1.13;;;;;;;11.44;100.00;100127.34;5244007;28;20041;-75
2022/12/31 01:36:49;;;;;;;3.40;1.20;;;;;;;11.42;100.00;100131.75;5244424;28;20457;-75
2022/12/31 01:39:21;;;;;;;1.43;1.13;;;;;;;11.40;100.00;100128.28;5244192;28;20530;-76
2022/12/31 01:41:52;;;;;;;1.07;1.00;;;;;;;11.40;100.00;100128.28;5243915;28;20029;-76
2022/12/31 01:44:24;;;;;;;2.20;1.10;;;;;;;11.37;100.00;100134.47;5244121;28;20075;-76
2022/12/31 01:47:00;;;;;;;1.80;1.00;;;;;;;11.39;100.00;100135.28;5244223;28;20022;-75
2022/12/31 01:49:39;;;;;;;2.47;1.10;;;;;;;11.37;100.00;100144.06;5243630;28;20025;-76
2022/12/31 01:52:11;;;;;;;2.55;0.95;;;;;;;11.37;100.00;100165.78;5243338;28;20345;-75
2022/12/31 01:54:54;;;;;;;2.13;0.90;;;;;;;11.40;100.00;100190.94;5243772;28;20032;-74
2022/12/31 01:57:26;;;;;;;0.90;0.85;;;;;;;11.40;100.00;100191.81;5244112;28;20029;-74
2022/12/31 01:59:59;;;;;;;1.10;1.00;;;;;;;11.42;100.00;100182.19;5243912;28;20497;-76
2022/12/31 02:02:31;;;;;;;1.30;0.85;;;;;;;11.40;100.00;100155.28;5242281;28;20044;-76
2022/12/31 02:05:12;;;;;;;2.17;1.20;;;;;;;11.39;100.00;100144.88;5243294;28;20033;-75
2022/12/31 02:07:44;;;;;;;1.40;1.30;;;;;;;11.38;100.00;100145.75;5243161;28;20033;-75
2022/12/31 02:10:16;;;;;;;1.33;1.23;;;;;;;11.37;100.00;100147.53;5243076;28;20033;-75
2022/12/31 02:12:48;;;;;;;1.10;1.10;;;;;;;11.40;100.00;100138.72;5238454;28;20054;-75
2022/12/31 02:15:32;;;;;;;1.57;1.47;;;;;;;11.38;100.00;100153.59;5230017;28;20054;-75
2022/12/31 02:18:26;;;;;;;1.67;1.58;;;;;;;11.37;100.00;100170.16;5242748;28;20049;-78
2022/12/31 02:21:03;;;;;;;3.15;2.03;;;;;;;11.37;100.00;100168.41;5243109;28;20037;-75
2022/12/31 02:24:01;;;;;;;2.17;1.77;;;;;;;11.38;100.00;100188.38;5244379;28;20045;-75
2022/12/31 02:26:32;;;;;;;1.73;1.63;;;;;;;11.41;100.00;100190.88;5243146;28;20063;-75
2022/12/31 02:29:16;;;;;;;2.03;1.63;;;;;;;11.41;100.00;100188.28;5243552;28;20078;-76
2022/12/31 02:32:23;;;;;;;2.50;1.90;;;;;;;11.41;100.00;100208.31;5243110;28;20029;-75
2022/12/31 02:35:12;;;;;;;2.45;2.00;;;;;;;11.42;100.00;100197.00;5242773;28;20064;-75
2022/12/31 02:37:48;;;;;;;2.15;1.88;;;;;;;11.42;100.00;100187.41;5243637;28;20030;-74
2022/12/31 02:40:21;;;;;;;2.97;2.60;;;;;;;11.42;100.00;100202.22;5243150;28;20383;-76
2022/12/31 02:42:53;;;;;;;2.70;2.47;;;;;;;11.42;100.00;100210.03;5242115;28;20025;-75
2022/12/31 02:45:36;;;;;;;5.37;2.53;;;;;;;11.41;100.00;100209.16;5242766;28;20040;-76
2022/12/31 02:48:20;;;;;;;3.72;3.20;;;;;;;11.43;100.00;100204.78;5243108;28;20033;-75
2022/12/31 02:50:59;;;;;;;5.78;3.30;;;;;;;11.39;100.00;100203.13;5242891;28;20029;-75
2022/12/31 02:53:51;;;;;;;4.13;3.35;;;;;;;11.39;100.00;100192.69;5242948;28;20029;-76
2022/12/31 02:56:29;;;;;;;5.25;3.42;;;;;;;11.39;100.00;100190.06;5242620;28;20033;-76
2022/12/31 03:02:12;;;;;;;3.42;3.10;;;;;;;11.35;100.00;100188.47;5242814;28;20037;-76
2022/12/31 03:04:51;;;;;;;4.20;2.92;;;;;;;11.32;100.00;100180.72;5242531;28;20030;-76
2022/12/31 03:07:28;;;;;;;4.68;2.90;;;;;;;11.30;100.00;100185.97;5242372;28;20029;-75
2022/12/31 03:10:00;;;;;;;3.97;2.83;;;;;;;11.27;100.00;100169.50;5242324;28;20025;-76
2022/12/31 03:12:45;;;;;;;6.27;3.00;;;;;;;11.26;100.00;100175.63;5241760;28;20084;-77
2022/12/31 03:15:19;;;;;;;3.33;3.03;;;;;;;11.25;100.00;100171.31;5242477;28;20135;-77
2022/12/31 03:17:56;;;;;;;3.50;3.10;;;;;;;11.27;100.00;100179.94;5242188;28;20040;-77
2022/12/31 03:23:35;;;;;;;3.30;2.90;;;;;;;11.28;100.00;100158.19;5242125;28;20037;-77
2022/12/31 03:26:11;;;;;;;3.22;2.83;;;;;;;11.27;100.00;100159.06;5241663;28;20030;-77
2022/12/31 03:28:46;;;;;;;3.25;2.72;;;;;;;11.26;100.00;100157.38;5242291;28;20029;-76
2022/12/31 03:31:17;;;;;;;5.78;3.10;;;;;;;11.25;100.00;100158.25;5240490;28;20030;-76
2022/12/31 03:33:49;;;;;;;4.20;3.00;;;;;;;11.24;100.00;100153.97;5241861;28;20026;-75
2022/12/31 03:36:20;;;;;;;6.17;2.80;;;;;;;11.22;100.00;100153.13;5242114;28;20045;-77
2022/12/31 03:38:52;;;;;;;3.10;2.80;;;;;;;11.21;100.00;100141.84;5241738;28;20030;-76
2022/12/31 03:41:23;;;;;;;3.77;2.70;;;;;;;11.19;100.00;100135.81;5241477;28;20029;-75
2022/12/31 03:43:55;;;;;;;2.87;2.63;;;;;;;11.21;100.00;100130.56;5242356;28;20117;-76
2022/12/31 03:46:26;;;;;;;3.73;3.03;;;;;;;11.20;100.00;100134.91;5241844;28;20034;-75
2022/12/31 03:48:57;;;;;;;3.07;2.50;;;;;;;11.22;100.00;100129.63;5241551;28;20120;-75
2022/12/31 03:51:29;;;;;;;3.73;2.60;;;;;;;11.21;100.00;100128.78;5241527;28;20037;-75
2022/12/31 03:54:00;;;;;;;2.63;2.30;;;;;;;11.21;100.00;100126.19;5241547;28;20037;-75
2022/12/31 03:56:31;;;;;;;2.53;2.23;;;;;;;11.19;100.00;100130.59;5241530;28;20042;-74
2022/12/31 03:59:03;;;;;;;3.23;2.50;;;;;;;11.19;100.00;100121.91;5241369;28;20030;-76
2022/12/31 04:01:34;;;;;;;3.67;2.10;;;;;;;11.19;100.00;100122.78;5241795;28;20033;-75
2022/12/31 04:04:05;;;;;;;4.13;2.37;;;;;;;11.22;100.00;100120.09;5241493;28;20029;-75
2022/12/31 04:06:37;;;;;;;1.60;1.50;;;;;;;11.24;100.00;100126.09;5241563;28;20032;-75
2022/12/31 04:09:08;;;;;;;1.43;1.30;;;;;;;11.29;100.00;100116.41;5241523;28;20030;-76
2022/12/31 04:11:39;;;;;;;2.20;1.40;;;;;;;11.34;100.00;100108.47;5241247;28;20033;-75
2022/12/31 04:14:11;;;;;;;2.17;1.23;;;;;;;11.43;100.00;100108.22;5240217;28;20176;-73
2022/12/31 04:16:43;;;;;;;1.30;1.20;;;;;;;11.50;100.00;100109.75;5240340;28;20049;-74
2022/12/31 04:19:14;;;;;;;2.00;1.50;;;;;;;11.56;100.00;100113.97;5241441;28;20500;-75
2022/12/31 04:21:46;;;;;;;3.00;1.63;;;;;;;11.67;100.00;100119.75;5241294;28;20037;-75
2022/12/31 04:24:17;;;;;;;3.53;2.07;;;;;;;11.82;100.00;100110.59;5241266;28;20038;-76
2022/12/31 04:26:49;;;;;;;5.70;2.87;;;;;;;11.92;100.00;100100.78;5239975;28;20121;-75
2022/12/31 04:29:20;;;;;;;5.00;1.80;;;;;;;12.00;100.00;100100.56;5241307;28;20034;-76
2022/12/31 04:31:52;;;;;;;2.67;1.80;;;;;;;12.09;100.00;100096.81;5241489;28;20026;-76
2022/12/31 04:34:23;;;;;;;9.10;2.03;;;;;;;12.12;100.00;100091.50;5240909;28;20499;-74
2022/12/31 04:36:54;;;;;;;6.87;2.03;;;;;;;12.22;100.00;100098.16;5241633;28;20438;-74
2022/12/31 04:39:26;;;;;;;8.13;2.43;;;;;;;12.29;100.00;100073.53;5245812;28;20460;-75
2022/12/31 04:41:57;;;;;;;4.87;1.93;;;;;;;12.33;100.00;100074.28;5243893;28;20041;-76
2022/12/31 04:44:30;;;;;;;5.70;1.83;;;;;;;12.37;100.00;100074.16;5245281;28;20476;-75
2022/12/31 04:47:01;;;;;;;6.05;1.67;;;;;;;12.58;100.00;100110.97;5245135;28;20041;-75
2022/12/31 04:49:33;;;;;;;2.77;1.30;;;;;;;12.59;100.00;100112.69;5245480;28;20092;-78
2022/12/31 04:52:04;;;;;;;7.13;1.47;;;;;;;12.63;100.00;100116.91;5245145;28;20036;-78
2022/12/31 04:54:35;;;;;;;6.40;1.33;;;;;;;12.69;100.00;100116.72;5245061;28;20088;-75
2022/12/31 04:57:07;;;;;;;4.97;1.50;;;;;;;12.73;100.00;100107.84;5244767;28;20037;-76
2022/12/31 04:59:38;;;;;;;6.47;1.77;;;;;;;12.88;100.00;100135.28;5243797;28;20032;-75
2022/12/31 05:02:10;;;;;;;4.53;1.60;;;;;;;12.91;100.00;100136.94;5244552;28;20171;-75
2022/12/31 05:04:41;;;;;;;4.07;1.40;;;;;;;12.91;100.00;100142.16;5244824;28;20426;-74
2022/12/31 05:07:13;;;;;;;3.83;1.77;;;;;;;12.93;100.00;100133.38;5245467;28;20025;-76
2022/12/31 05:09:44;;;;;;;2.40;1.10;;;;;;;12.97;100.00;100160.28;5245223;28;20421;-74
2022/12/31 05:12:15;;;;;;;4.13;1.20;;;;;;;12.97;100.00;100144.56;5244507;28;20075;-76
2022/12/31 05:14:47;;;;;;;6.37;1.10;;;;;;;13.01;100.00;100145.31;5244626;28;20072;-76
2022/12/31 05:17:19;;;;;;;4.57;1.20;;;;;;;13.07;100.00;100139.91;5244211;28;20136;-75
2022/12/31 05:19:51;;;;;;;3.38;1.15;;;;;;;13.12;100.00;100146.69;5243261;28;20037;-75
2022/12/31 05:22:28;;;;;;;3.70;1.10;;;;;;;13.11;100.00;100150.22;5244803;28;20095;-76
2022/12/31 05:24:59;;;;;;;3.78;1.23;;;;;;;13.06;100.00;100159.97;5244764;28;20121;-75
2022/12/31 05:27:31;;;;;;;3.43;1.37;;;;;;;13.18;100.00;100147.41;5244275;28;20113;-75
2022/12/31 05:30:04;;;;;;;4.17;0.93;;;;;;;13.42;100.00;100146.56;5244113;28;20036;-77
2022/12/31 05:32:35;;;;;;;2.33;1.10;;;;;;;13.25;100.00;100141.91;5244333;28;20029;-75
2022/12/31 05:35:07;;;;;;;2.27;1.17;;;;;;;13.22;100.00;100189.13;5244502;28;20037;-76
2022/12/31 05:37:38;;;;;;;2.73;0.97;;;;;;;13.11;100.00;100194.69;5243157;28;20080;-76
2022/12/31 05:40:11;;;;;;;3.37;1.03;;;;;;;13.09;100.00;100178.19;5244646;28;20145;-76
2022/12/31 05:42:42;;;;;;;5.07;2.17;;;;;;;13.03;100.00;100164.47;5244191;28;20056;-75
2022/12/31 05:45:14;;;;;;;2.97;1.23;;;;;;;12.99;100.00;100176.78;5244123;28;20029;-75
2022/12/31 05:47:46;;;;;;;6.82;1.10;;;;;;;13.13;100.00;100185.03;5243596;28;20040;-77
2022/12/31 05:50:17;;;;;;;2.27;1.20;;;;;;;13.14;100.00;100171.03;5243098;28;20392;-75
2022/12/31 05:52:49;;;;;;;1.90;0.77;;;;;;;13.25;100.00;100172.44;5243811;28;20060;-77
2022/12/31 05:55:20;;;;;;;3.27;1.10;;;;;;;13.27;100.00;100171.50;5242790;28;20547;-76
2022/12/31 05:57:51;;;;;;;2.97;0.93;;;;;;;13.30;100.00;100178.41;5244235;28;20487;-77
2022/12/31 06:00:23;;;;;;;3.70;1.37;;;;;;;13.36;100.00;100166.88;5244600;28;20117;-76
2022/12/31 06:02:54;;;;;;;2.30;0.97;;;;;;;13.29;100.00;100156.59;5244323;28;20083;-77
2022/12/31 06:05:26;;;;;;;2.67;1.10;;;;;;;13.47;100.00;100199.63;5244288;28;20092;-76
2022/12/31 06:07:57;;;;;;;2.53;0.87;;;;;;;13.50;100.00;100196.91;5244673;28;20491;-77
2022/12/31 06:10:28;;;;;;;4.57;1.53;;;;;;;13.53;100.00;100177.63;5244866;28;20456;-77
2022/12/31 06:13:00;;;;;;;4.47;1.37;;;;;;;13.52;100.00;100189.00;5243110;28;20030;-78
2022/12/31 06:15:31;;;;;;;4.60;1.50;;;;;;;13.53;100.00;100197.72;5243815;28;20080;-77
2022/12/31 06:18:03;;;;;;;3.90;1.00;;;;;;;13.77;100.00;100212.59;5246593;28;20053;-75
2022/12/31 06:20:38;;;;;;;2.73;1.00;;;;;;;13.88;100.00;100211.34;5248676;28;20029;-76
2022/12/31 06:23:09;;;;;;;2.75;0.90;;;;;;;14.22;100.00;100201.34;5250287;28;20033;-75
2022/12/31 06:25:40;;;;;;;3.67;1.53;;;;;;;14.19;100.00;100205.84;5250723;28;20037;-77
2022/12/31 06:28:12;;;;;;;4.57;0.90;;;;;;;14.21;100.00;100212.72;5251740;28;20025;-75
2022/12/31 06:30:43;;;;;;;2.17;0.83;;;;;;;14.28;100.00;100220.38;5250014;28;20160;-74
2022/12/31 06:33:15;;;;;;;2.80;1.70;;;;;;;14.22;100.00;100217.06;5247432;28;20040;-74
2022/12/31 06:35:46;;;;;;;3.67;0.97;;;;;;;14.40;100.00;100227.78;5249425;28;20030;-74
2022/12/31 06:38:17;;;;;;;2.70;0.97;;;;;;;14.49;100.00;100229.19;5250915;28;20037;-74
2022/12/31 06:40:49;;;;;;;2.90;1.13;;;;;;;14.79;100.00;100208.81;5243928;28;20457;-76
2022/12/31 06:43:21;;;;;;;3.83;0.93;;;;;;;14.59;100.00;100215.72;5242020;28;20041;-74
2022/12/31 06:45:52;;;;;;;2.42;0.90;;;;;;;14.43;100.00;100218.97;5242735;28;20033;-75
2022/12/31 06:48:24;;;;;;;1.67;0.90;;;;;;;14.39;100.00;100212.97;5241231;28;20045;-75
2022/12/31 06:50:55;;;;;;;4.80;1.63;;;;;;;14.32;100.00;100228.06;5243016;28;20377;-74
2022/12/31 06:53:27;;;;;;;2.57;1.00;;;;;;;14.36;100.00;100210.44;5241331;28;20037;-75
2022/12/31 06:56:08;;;;;;;3.67;1.10;;;;;;;14.47;100.00;100215.28;5241007;28;20087;-76
2022/12/31 06:58:40;;;;;;;3.53;1.00;;;;;;;14.52;100.00;100219.47;5242623;28;20029;-74
2022/12/31 07:01:42;;;;;;;2.65;1.15;;;;;;;14.40;100.00;100210.28;5241988;28;20083;-75
2022/12/31 07:04:45;;;;;;;3.72;1.25;;;;;;;14.45;100.00;100223.22;5243208;28;20036;-75
2022/12/31 07:07:54;;;;;;;2.38;1.00;;;;;;;14.45;100.00;100212.72;5241448;28;20042;-73
2022/12/31 07:10:33;;;;;;;4.60;1.48;;;;;;;14.61;100.00;100233.16;5242477;28;20464;-75
2022/12/31 07:13:14;;;;;;;3.10;1.00;;;;;;;14.53;100.00;100222.94;5241780;28;20045;-76
2022/12/31 07:16:09;;;;;;;1.90;1.30;;;;;;;14.52;100.00;100224.72;5242338;28;20128;-74
2022/12/31 07:18:55;;;;;;;3.70;1.45;;;;;;;14.49;100.00;100232.69;5242445;28;20045;-74
2022/12/31 07:21:34;;;;;;;3.72;1.20;;;;;;;14.54;100.00;100253.50;5241973;28;20035;-74
2022/12/31 07:24:07;;;;;;;5.85;1.23;;;;;;;14.65;100.00;100219.88;5242218;28;20037;-74
2022/12/31 07:26:48;;;;;;;4.75;1.85;;;;;;;14.66;100.00;100216.31;5242016;28;20033;-74
2022/12/31 07:29:26;;;;;;;4.20;1.40;;;;;;;14.65;100.00;100219.88;5241412;28;20476;-73
2022/12/31 07:32:28;;;;;;;4.00;1.58;;;;;;;14.65;100.00;100225.13;5242268;28;20025;-72
2022/12/31 07:35:08;;;;;;;3.92;1.50;;;;;;;14.74;100.00;100226.53;5242681;28;20030;-73
2022/12/31 07:37:58;;;;;;;4.65;1.90;;;;;;;14.65;100.00;100238.25;5242459;28;20112;-73
2022/12/31 07:40:51;;;;;;;4.05;1.40;;;;;;;14.56;100.00;100239.41;5242654;28;20057;-73
2022/12/31 07:43:55;;;;;;;5.78;1.55;;;;;;;14.56;100.00;100238.56;5242320;28;20029;-75
2022/12/31 07:46:47;;;;;;;2.80;1.23;;;;;;;14.55;100.00;100236.84;5241638;28;20029;-73
2022/12/31 07:49:19;;;;;;;2.08;1.15;;;;;;;14.45;100.00;100246.81;5242307;28;20025;-73
2022/12/31 07:51:51;;;;;;;6.17;1.63;;;;;;;14.13;100.00;100250.63;5241790;28;20030;-74
2022/12/31 07:54:22;;;;;;;6.95;1.70;;;;;;;13.89;100.00;100234.88;5241889;28;20268;-74
2022/12/31 07:56:53;;;;;;;4.93;1.40;;;;;;;13.85;100.00;100228.88;5241681;28;20371;-74
2022/12/31 07:59:53;;;;;;;5.07;2.23;;;;;;;13.94;100.00;100232.09;5242108;28;20033;-74
2022/12/31 08:02:39;;;;;;;4.30;1.33;;;;;;;13.92;100.00;100226.03;5241758;28;20404;-75
2022/12/31 08:05:19;;;;;;;5.20;1.65;;;;;;;13.97;100.00;100235.44;5241794;28;20033;-73
2022/12/31 08:08:14;;;;;;;3.10;1.17;;;;;;;13.89;100.00;100253.19;5241477;28;20029;-74
2022/12/31 08:10:45;;;;;;;8.80;2.65;;;;;;;13.92;100.00;100281.06;5241992;28;20456;-74
2022/12/31 08:13:17;;;;;;;5.50;1.67;;;;;;;13.83;100.00;100292.75;5244595;28;20109;-75
2022/12/31 08:15:48;;;;;;;4.82;1.40;;;;;;;13.63;100.00;100293.41;5248006;28;20484;-76
2022/12/31 08:18:20;;;;;;;4.40;1.30;;;;;;;13.52;100.00;100283.25;5248605;28;20040;-75
2022/12/31 08:21:21;;;;;;;3.97;1.40;;;;;;;13.48;100.00;100323.56;5248412;28;20071;-74
2022/12/31 08:24:17;;;;;;;4.85;1.30;;;;;;;13.51;100.00;100307.75;5248311;28;20479;-76
2022/12/31 08:27:07;;;;;;;4.70;1.98;;;;;;;13.49;100.00;100326.13;5248477;28;20029;-75
2022/12/31 08:29:48;;;;;;;3.65;1.58;;;;;;;13.47;100.00;100329.69;5248264;28;20105;-75
2022/12/31 08:32:49;;;;;;;3.45;1.40;;;;;;;13.55;100.00;100340.78;5247281;28;20532;-75
2022/12/31 08:35:35;;;;;;;4.43;1.50;;;;;;;13.61;100.00;100339.75;5248472;28;20033;-76
2022/12/31 08:38:25;;;;;;;3.88;1.33;;;;;;;13.84;100.00;100347.66;5248091;28;20034;-74
2022/12/31 08:41:33;;;;;;;6.43;1.65;;;;;;;13.89;100.00;100388.59;5248505;28;20025;-74
2022/12/31 08:44:29;;;;;;;6.90;1.70;;;;;;;13.77;100.00;100374.16;5247986;28;20083;-75
2022/12/31 08:47:03;;;;;;;3.38;1.23;;;;;;;13.57;100.00;100359.94;5249429;28;20036;-73
2022/12/31 08:49:35;;;;;;;3.38;1.30;;;;;;;13.58;100.00;100382.59;5248128;28;20060;-72
2022/12/31 08:52:22;;;;;;;3.37;1.20;;;;;;;13.62;100.00;100371.13;5247588;28;20061;-75
2022/12/31 08:54:54;;;;;;;5.53;1.95;;;;;;;13.75;100.00;100383.78;5247822;28;20380;-74
2022/12/31 08:57:39;;;;;;;2.73;1.33;;;;;;;13.82;100.00;100383.56;5248688;28;20034;-74
2022/12/31 09:00:12;;;;;;;5.00;1.38;;;;;;;13.85;100.00;100401.78;5248285;28;20036;-75
2022/12/31 09:03:20;;;;;;;5.90;1.63;;;;;;;13.84;100.00;100415.78;5248276;28;20044;-76
2022/12/31 09:06:19;;;;;;;2.45;1.20;;;;;;;13.70;100.00;100410.16;5248574;28;20415;-74
2022/12/31 09:09:19;;;;;;;2.40;1.15;;;;;;;13.62;100.00;100435.72;5248042;28;20046;-74
2022/12/31 09:12:07;;;;;;;4.25;1.63;;;;;;;13.57;100.00;100435.00;5248288;28;20468;-76
2022/12/31 09:14:46;;;;;;;6.88;2.10;;;;;;;13.49;100.00;100437.84;5248145;28;20060;-74
2022/12/31 09:17:46;;;;;;;4.78;2.20;;;;;;;13.35;100.00;100446.13;5247937;28;20033;-76
2022/12/31 09:20:24;;;;;;;4.47;1.48;;;;;;;13.43;100.00;100446.75;5247509;28;20125;-77
2022/12/31 09:22:57;;;;;;;5.50;2.03;;;;;;;13.37;100.00;100451.34;5247565;28;20026;-77
2022/12/31 09:25:29;;;;;;;5.00;1.60;;;;;;;13.32;100.00;100464.53;5243863;28;20029;-77
2022/12/31 09:28:18;;;;;;;8.57;2.28;;;;;;;13.27;100.00;100475.13;5243553;28;20364;-77
2022/12/31 09:31:07;;;;;;;8.43;2.00;;;;;;;13.27;100.00;100476.88;5244060;28;20120;-77
2022/12/31 09:33:48;;;;;;;8.73;2.65;;;;;;;13.23;100.00;100459.53;5244879;28;20124;-76
2022/12/31 09:36:29;;;;;;;4.45;1.90;;;;;;;13.22;100.00;100470.94;5244059;28;20468;-74
2022/12/31 09:39:22;;;;;;;7.22;2.80;;;;;;;13.27;100.00;100477.75;5244550;28;20037;-74
2022/12/31 09:42:03;;;;;;;8.80;2.60;;;;;;;13.22;100.00;100466.56;5244487;28;20041;-73
2022/12/31 09:45:07;;;;;;;8.07;4.55;;;;;;;13.40;100.00;100472.19;5244057;28;20129;-76
2022/12/31 09:48:06;;;;;;;28.45;25.80;;;;;;;13.43;100.00;100472.09;5244115;28;20025;-75
2022/12/31 09:50:52;;;;;;;19.00;16.08;;;;;;;13.52;100.00;100469.19;5244572;28;20021;-75
2022/12/31 09:53:34;;;;;;;4.95;2.25;;;;;;;13.77;100.00;100478.94;5243672;28;20099;-76
2022/12/31 09:56:09;;;;;;;6.77;2.97;;;;;;;13.99;100.00;100464.25;5244524;28;20060;-75
2022/12/31 09:58:43;;;;;;;6.57;1.90;;;;;;;14.00;100.00;100467.72;5244365;28;20060;-74
2022/12/31 10:01:41;;;;;;;5.95;2.30;;;;;;;14.05;100.00;100463.19;5243836;28;20030;-75
2022/12/31 10:04:41;;;;;;;5.38;2.05;;;;;;;14.25;100.00;100483.53;5244102;28;20061;-75
2022/12/31 10:07:34;;;;;;;5.15;1.70;;;;;;;14.32;100.00;100476.31;5243567;28;20363;-75
2022/12/31 10:10:17;;;;;;;9.18;2.13;;;;;;;14.32;100.00;100481.53;5243213;28;20440;-74
2022/12/31 10:13:04;;;;;;;6.65;1.70;;;;;;;14.27;100.00;100484.31;5243038;28;20029;-74
2022/12/31 10:16:00;;;;;;;7.10;2.05;;;;;;;14.29;100.00;100492.97;5243682;28;20465;-76
2022/12/31 10:18:48;;;;;;;6.25;2.00;;;;;;;14.09;100.00;100477.91;5243471;28;20477;-74
2022/12/31 10:21:54;;;;;;;7.53;2.10;;;;;;;13.95;100.00;100486.19;5243612;28;20403;-76
2022/12/31 10:24:40;;;;;;;4.65;1.98;;;;;;;13.98;100.00;100482.66;5243407;28;20038;-75
2022/12/31 10:27:50;;;;;;;4.70;1.50;;;;;;;14.17;100.00;100491.63;5242882;28;20076;-75
2022/12/31 10:30:23;;;;;;;6.63;2.20;;;;;;;14.29;100.00;100468.53;5242574;28;20480;-75
2022/12/31 10:33:17;;;;;;;5.40;2.10;;;;;;;14.33;100.00;100463.13;5243665;28;20427;-73
2022/12/31 10:36:08;;;;;;;4.35;1.85;;;;;;;14.46;100.00;100454.84;5241532;28;20076;-75
2022/12/31 10:39:03;;;;;;;5.32;1.92;;;;;;;14.63;100.00;100452.53;5243202;28;20471;-75
2022/12/31 10:41:57;;;;;;;5.38;2.20;;;;;;;14.70;100.00;100463.66;5243195;28;20045;-76
2022/12/31 10:44:47;;;;;;;6.70;2.50;;;;;;;14.78;100.00;100472.16;5243419;28;20052;-74
2022/12/31 10:47:19;;;;;;;4.57;1.67;;;;;;;14.83;100.00;100483.31;5241493;28;20149;-74
2022/12/31 10:50:27;;;;;;;8.33;2.70;;;;;;;14.88;100.00;100460.41;5242572;28;20135;-75
2022/12/31 10:53:24;;;;;;;6.70;2.25;;;;;;;14.79;100.00;100471.22;5242761;28;20354;-75
2022/12/31 10:56:33;;;;;;;5.95;1.80;;;;;;;14.80;100.00;100482.59;5241364;28;20033;-74
2022/12/31 10:59:42;;;;;;;5.70;2.35;;;;;;;15.02;100.00;100487.91;5242200;28;20045;-74
2022/12/31 11:02:49;;;;;;;7.68;2.15;;;;;;;15.13;98.84;100480.50;5242549;28;20033;-74
2022/12/31 11:05:26;;;;;;;5.40;2.05;;;;;;;15.23;97.78;100496.75;5178928;28;20185;-74
2022/12/31 11:08:23;;;;;;;6.00;2.03;;;;;;;15.26;97.11;100522.91;5235202;28;20103;-76
2022/12/31 11:11:06;;;;;;;8.27;2.33;;;;;;;15.29;96.72;100494.81;5235831;28;20045;-77
2022/12/31 11:13:37;;;;;;;;;;;;;;;15.25;98.20;100501.06;5242832;28;20025;-75
2022/12/31 11:16:30;;;;;;;6.00;1.92;;;;;;;15.22;97.71;100498.53;5242669;28;19917;-76
2022/12/31 11:19:20;;;;;;;5.13;1.92;;;;;;;15.29;96.65;100494.81;5242182;28;20033;-76
2022/12/31 11:22:22;;;;;;;5.68;1.83;;;;;;;15.40;95.68;100532.94;5241593;28;20112;-74
2022/12/31 11:25:27;;;;;;;9.80;2.08;;;;;;;15.43;94.97;100501.28;5242162;28;20033;-75
2022/12/31 11:28:21;;;;;;;6.65;2.35;;;;;;;15.48;93.25;100505.44;5242370;28;20037;-76
2022/12/31 11:31:05;;;;;;;5.72;2.13;;;;;;;15.47;92.81;100509.00;5242320;28;20089;-75
2022/12/31 11:34:00;;;;;;;7.30;2.58;;;;;;;15.38;94.10;100501.47;5242047;28;20036;-75
2022/12/31 11:36:56;;;;;;;8.45;2.72;;;;;;;15.41;94.12;100496.09;5242064;28;20022;-75
2022/12/31 11:39:57;;;;;;;9.23;3.25;;;;;;;15.57;92.24;100516.50;5242587;28;20118;-74
2022/12/31 11:42:43;;;;;;;6.15;2.63;;;;;;;15.42;93.78;100510.97;5241490;28;20039;-75
2022/12/31 11:45:37;;;;;;;8.38;3.20;;;;;;;15.46;93.65;100506.44;5242279;28;20472;-74
2022/12/31 11:48:31;;;;;;;9.13;3.30;;;;;;;15.22;95.70;100511.69;5240950;28;20081;-75
2022/12/31 11:51:34;;;;;;;15.00;5.45;;;;;;;14.90;98.95;100502.34;5241585;28;20033;-76
2022/12/31 11:54:21;;;;;;;5.88;2.30;;;;;;;14.69;100.00;100517.06;5242292;28;20116;-75
2022/12/31 11:57:12;;;;;;;6.30;2.20;;;;;;;14.41;100.00;100500.44;5240058;28;20037;-74
2022/12/31 11:59:43;;;;;;;7.50;2.33;;;;;;;14.37;100.00;100496.19;5242776;28;20104;-76
2022/12/31 12:02:33;;;;;;;9.30;2.80;;;;;;;14.57;100.00;100500.78;5241833;28;20371;-76
2022/12/31 12:05:05;;;;;;;7.55;2.67;;;;;;;14.65;100.00;100560.03;5241561;28;20036;-76
2022/12/31 12:07:37;;;;;;;8.77;2.55;;;;;;;14.62;100.00;100516.41;5241489;28;20371;-77
2022/12/31 12:10:22;;;;;;;7.10;2.20;;;;;;;14.38;100.00;100507.56;5242171;28;20025;-74
2022/12/31 12:12:55;;;;;;;6.70;2.03;;;;;;;14.43;100.00;100524.00;5242072;28;20457;-74
2022/12/31 12:15:34;;;;;;;7.88;3.25;;;;;;;14.29;100.00;100506.09;5239912;28;20065;-76
2022/12/31 12:18:22;;;;;;;9.63;2.33;;;;;;;14.28;100.00;100509.63;5241983;28;20457;-75
2022/12/31 12:21:03;;;;;;;5.63;2.08;;;;;;;14.17;100.00;100496.88;5242099;28;20060;-75